sensor_id;sensor_type;location;lat;lon;timestamp;pressure;altitude;pressure_sealevel;temperature
12126;BMP180;6126;57.908;16.490;2022-11-27T00:01:24;102848.69;;;1.83
12126;BMP180;6126;57.908;16.490;2022-11-27T00:03:50;102841.88;;;1.85
12126;BMP180;6126;57.908;16.490;2022-11-27T00:06:21;102847.03;;;1.85
12126;BMP180;6126;57.908;16.490;2022-11-27T00:08:48;102845.31;;;1.84
12126;BMP180;6126;57.908;16.490;2022-11-27T00:11:20;102840.03;;;1.82
12126;BMP180;6126;57.908;16.490;2022-11-27T00:13:48;102848.50;;;1.76
12126;BMP180;6126;57.908;16.490;2022-11-27T00:16:15;102857.13;;;1.77
12126;BMP180;6126;57.908;16.490;2022-11-27T00:18:41;102841.69;;;1.78
12126;BMP180;6126;57.908;16.490;2022-11-27T00:21:15;102840.84;;;1.79
12126;BMP180;6126;57.908;16.490;2022-11-27T00:23:42;102846.00;;;1.79
12126;BMP180;6126;57.908;16.490;2022-11-27T00:26:09;102839.09;;;1.78
12126;BMP180;6126;57.908;16.490;2022-11-27T00:28:35;102834.81;;;1.77
12126;BMP180;6126;57.908;16.490;2022-11-27T00:31:07;102836.50;;;1.77
12126;BMP180;6126;57.908;16.490;2022-11-27T00:33:36;102833.09;;;1.78
12126;BMP180;6126;57.908;16.490;2022-11-27T00:36:04;102839.97;;;1.79
12126;BMP180;6126;57.908;16.490;2022-11-27T00:38:31;102827.94;;;1.78
12126;BMP180;6126;57.908;16.490;2022-11-27T00:41:18;102828.78;;;1.77
12126;BMP180;6126;57.908;16.490;2022-11-27T00:43:45;102838.13;;;1.73
12126;BMP180;6126;57.908;16.490;2022-11-27T00:46:21;102833.00;;;1.75
12126;BMP180;6126;57.908;16.490;2022-11-27T00:48:48;102824.41;;;1.74
12126;BMP180;6126;57.908;16.490;2022-11-27T00:51:17;102827.84;;;1.75
12126;BMP180;6126;57.908;16.490;2022-11-27T00:53:44;102827.78;;;1.72
12126;BMP180;6126;57.908;16.490;2022-11-27T00:56:23;102825.16;;;1.70
12126;BMP180;6126;57.908;16.490;2022-11-27T00:58:50;102817.44;;;1.70
12126;BMP180;6126;57.908;16.490;2022-11-27T01:01:25;102836.34;;;1.71
12126;BMP180;6126;57.908;16.490;2022-11-27T01:03:52;102844.13;;;1.72
12126;BMP180;6126;57.908;16.490;2022-11-27T01:06:19;102844.13;;;1.74
12126;BMP180;6126;57.908;16.490;2022-11-27T01:08:45;102844.13;;;1.74
12126;BMP180;6126;57.908;16.490;2022-11-27T01:11:21;102835.59;;;1.75
12126;BMP180;6126;57.908;16.490;2022-11-27T01:13:48;102840.69;;;1.72
12126;BMP180;6126;57.908;16.490;2022-11-27T01:16:17;102842.34;;;1.71
12126;BMP180;6126;57.908;16.490;2022-11-27T01:18:46;102845.84;;;1.72
12126;BMP180;6126;57.908;16.490;2022-11-27T01:21:17;102838.09;;;1.72
12126;BMP180;6126;57.908;16.490;2022-11-27T01:23:44;102851.00;;;1.72
12126;BMP180;6126;57.908;16.490;2022-11-27T01:26:11;102848.41;;;1.72
12126;BMP180;6126;57.908;16.490;2022-11-27T01:28:38;102845.72;;;1.69
12126;BMP180;6126;57.908;16.490;2022-11-27T01:31:12;102849.16;;;1.68
12126;BMP180;6126;57.908;16.490;2022-11-27T01:33:38;102847.41;;;1.67
12126;BMP180;6126;57.908;16.490;2022-11-27T01:36:06;102855.22;;;1.70
12126;BMP180;6126;57.908;16.490;2022-11-27T01:38:33;102851.78;;;1.69
12126;BMP180;6126;57.908;16.490;2022-11-27T01:43:47;102848.22;;;1.66
12126;BMP180;6126;57.908;16.490;2022-11-27T01:52:02;102858.47;;;1.63
12126;BMP180;6126;57.908;16.490;2022-11-27T01:54:48;102844.66;;;1.61
12126;BMP180;6126;57.908;16.490;2022-11-27T01:57:21;102850.59;;;1.57
12126;BMP180;6126;57.908;16.490;2022-11-27T01:59:50;102857.44;;;1.56
12126;BMP180;6126;57.908;16.490;2022-11-27T02:02:17;102863.53;;;1.58
12126;BMP180;6126;57.908;16.490;2022-11-27T02:04:43;102863.41;;;1.54
12126;BMP180;6126;57.908;16.490;2022-11-27T02:07:09;102881.31;;;1.50
12126;BMP180;6126;57.908;16.490;2022-11-27T02:09:34;102874.41;;;1.49
12126;BMP180;6126;57.908;16.490;2022-11-27T02:12:23;102876.22;;;1.51
12126;BMP180;6126;57.908;16.490;2022-11-27T02:18:09;102878.78;;;1.51
12126;BMP180;6126;57.908;16.490;2022-11-27T02:21:07;102880.44;;;1.49
12126;BMP180;6126;57.908;16.490;2022-11-27T02:29:31;102883.00;;;1.49
12126;BMP180;6126;57.908;16.490;2022-11-27T02:32:14;102871.78;;;1.47
12126;BMP180;6126;57.908;16.490;2022-11-27T02:43:02;102861.19;;;1.37
12126;BMP180;6126;57.908;16.490;2022-11-27T02:45:41;102859.41;;;1.34
12126;BMP180;6126;57.908;16.490;2022-11-27T02:48:09;102864.47;;;1.31
12126;BMP180;6126;57.908;16.490;2022-11-27T02:50:40;102861.75;;;1.27
12126;BMP180;6126;57.908;16.490;2022-11-27T02:53:14;102870.28;;;1.24
12126;BMP180;6126;57.908;16.490;2022-11-27T02:55:42;102870.34;;;1.26
12126;BMP180;6126;57.908;16.490;2022-11-27T02:58:15;102875.44;;;1.24
12126;BMP180;6126;57.908;16.490;2022-11-27T03:00:43;102878.84;;;1.23
12126;BMP180;6126;57.908;16.490;2022-11-27T03:03:16;102881.50;;;1.26
12126;BMP180;6126;57.908;16.490;2022-11-27T03:05:46;102877.16;;;1.24
12126;BMP180;6126;57.908;16.490;2022-11-27T03:08:33;102877.06;;;1.21
12126;BMP180;6126;57.908;16.490;2022-11-27T03:11:08;102870.13;;;1.19
12126;BMP180;6126;57.908;16.490;2022-11-27T03:13:41;102857.25;;;1.19
12126;BMP180;6126;57.908;16.490;2022-11-27T03:16:19;102860.66;;;1.18
12126;BMP180;6126;57.908;16.490;2022-11-27T03:24:15;102855.44;;;1.15
12126;BMP180;6126;57.908;16.490;2022-11-27T03:26:42;102846.88;;;1.16
12126;BMP180;6126;57.908;16.490;2022-11-27T03:29:24;102860.66;;;1.18
12126;BMP180;6126;57.908;16.490;2022-11-27T03:31:51;102856.38;;;1.18
12126;BMP180;6126;57.908;16.490;2022-11-27T03:34:17;102864.19;;;1.21
12126;BMP180;6126;57.908;16.490;2022-11-27T03:36:45;102857.25;;;1.19
12126;BMP180;6126;57.908;16.490;2022-11-27T03:39:11;102870.19;;;1.22
12126;BMP180;6126;57.908;16.490;2022-11-27T03:45:03;102860.91;;;1.26
12126;BMP180;6126;57.908;16.490;2022-11-27T03:53:47;102858.31;;;1.26
12126;BMP180;6126;57.908;16.490;2022-11-27T03:56:37;102869.56;;;1.28
12126;BMP180;6126;57.908;16.490;2022-11-27T03:59:19;102865.19;;;1.26
12126;BMP180;6126;57.908;16.490;2022-11-27T04:01:47;102858.31;;;1.26
12126;BMP180;6126;57.908;16.490;2022-11-27T04:04:13;102848.88;;;1.25
12126;BMP180;6126;57.908;16.490;2022-11-27T04:06:39;102866.03;;;1.25
12126;BMP180;6126;57.908;16.490;2022-11-27T04:09:05;102858.19;;;1.22
12126;BMP180;6126;57.908;16.490;2022-11-27T04:11:31;102851.38;;;1.23
12126;BMP180;6126;57.908;16.490;2022-11-27T04:13:57;102848.78;;;1.23
12126;BMP180;6126;57.908;16.490;2022-11-27T04:16:23;102863.34;;;1.22
12126;BMP180;6126;57.908;16.490;2022-11-27T04:18:49;102862.56;;;1.24
12126;BMP180;6126;57.908;16.490;2022-11-27T04:21:15;102862.56;;;1.24
12126;BMP180;6126;57.908;16.490;2022-11-27T04:23:43;102854.81;;;1.24
12126;BMP180;6126;57.908;16.490;2022-11-27T04:26:09;102848.00;;;1.25
12126;BMP180;6126;57.908;16.490;2022-11-27T04:28:35;102847.09;;;1.24
12126;BMP180;6126;57.908;16.490;2022-11-27T04:31:01;102837.50;;;1.19
12126;BMP180;6126;57.908;16.490;2022-11-27T04:33:27;102839.91;;;1.12
12126;BMP180;6126;57.908;16.490;2022-11-27T04:35:53;102834.75;;;1.12
12126;BMP180;6126;57.908;16.490;2022-11-27T04:38:20;102836.47;;;1.13
12126;BMP180;6126;57.908;16.490;2022-11-27T04:40:46;102833.06;;;1.14
12126;BMP180;6126;57.908;16.490;2022-11-27T04:43:12;102833.13;;;1.17
12126;BMP180;6126;57.908;16.490;2022-11-27T04:45:38;102837.44;;;1.16
12126;BMP180;6126;57.908;16.490;2022-11-27T04:48:06;102831.41;;;1.16
12126;BMP180;6126;57.908;16.490;2022-11-27T04:50:32;102834.00;;;1.16
12126;BMP180;6126;57.908;16.490;2022-11-27T04:52:58;102834.81;;;1.15
12126;BMP180;6126;57.908;16.490;2022-11-27T04:55:24;102832.06;;;1.09
12126;BMP180;6126;57.908;16.490;2022-11-27T04:57:50;102828.63;;;1.08
12126;BMP180;6126;57.908;16.490;2022-11-27T05:00:16;102826.84;;;1.06
12126;BMP180;6126;57.908;16.490;2022-11-27T05:02:42;102822.53;;;1.05
12126;BMP180;6126;57.908;16.490;2022-11-27T05:05:08;102819.81;;;1.00
12126;BMP180;6126;57.908;16.490;2022-11-27T05:07:34;102817.22;;;0.99
12126;BMP180;6126;57.908;16.490;2022-11-27T05:10:00;102814.63;;;0.99
12126;BMP180;6126;57.908;16.490;2022-11-27T05:12:26;102830.97;;;0.99
12126;BMP180;6126;57.908;16.490;2022-11-27T05:14:52;102842.97;;;1.00
12126;BMP180;6126;57.908;16.490;2022-11-27T05:17:18;102830.09;;;0.99
12126;BMP180;6126;57.908;16.490;2022-11-27T05:19:43;102830.09;;;0.99
12126;BMP180;6126;57.908;16.490;2022-11-27T05:22:09;102830.13;;;1.00
12126;BMP180;6126;57.908;16.490;2022-11-27T05:24:35;102826.66;;;1.00
12126;BMP180;6126;57.908;16.490;2022-11-27T05:27:01;102823.22;;;0.99
12126;BMP180;6126;57.908;16.490;2022-11-27T05:29:27;102825.81;;;1.01
12126;BMP180;6126;57.908;16.490;2022-11-27T05:31:53;102816.53;;;1.06
12126;BMP180;6126;57.908;16.490;2022-11-27T05:34:19;102812.31;;;1.08
12126;BMP180;6126;57.908;16.490;2022-11-27T05:36:45;102816.59;;;1.07
12126;BMP180;6126;57.908;16.490;2022-11-27T05:39:11;102813.09;;;1.05
12126;BMP180;6126;57.908;16.490;2022-11-27T05:41:40;102812.22;;;1.05
12126;BMP180;6126;57.908;16.490;2022-11-27T05:44:13;102805.31;;;1.04
12126;BMP180;6126;57.908;16.490;2022-11-27T05:46:40;102808.72;;;1.03
12126;BMP180;6126;57.908;16.490;2022-11-27T05:49:14;102804.50;;;1.05
12126;BMP180;6126;57.908;16.490;2022-11-27T05:51:40;102803.56;;;1.03
12126;BMP180;6126;57.908;16.490;2022-11-27T05:54:06;102799.28;;;1.02
12126;BMP180;6126;57.908;16.490;2022-11-27T05:56:32;102780.38;;;1.01
12126;BMP180;6126;57.908;16.490;2022-11-27T05:58:58;102781.28;;;1.03
12126;BMP180;6126;57.908;16.490;2022-11-27T06:01:24;102777.91;;;1.06
12126;BMP180;6126;57.908;16.490;2022-11-27T06:03:50;102768.44;;;1.05
12126;BMP180;6126;57.908;16.490;2022-11-27T06:06:18;102768.38;;;1.02
12126;BMP180;6126;57.908;16.490;2022-11-27T06:08:46;102761.50;;;1.02
12126;BMP180;6126;57.908;16.490;2022-11-27T06:11:17;102772.69;;;1.03
12126;BMP180;6126;57.908;16.490;2022-11-27T06:13:44;102770.94;;;1.02
12126;BMP180;6126;57.908;16.490;2022-11-27T06:18:40;102781.25;;;1.02
12126;BMP180;6126;57.908;16.490;2022-11-27T06:21:13;102771.84;;;1.04
12126;BMP180;6126;57.908;16.490;2022-11-27T06:23:41;102772.75;;;1.06
12126;BMP180;6126;57.908;16.490;2022-11-27T06:28:40;102767.59;;;1.06
12126;BMP180;6126;57.908;16.490;2022-11-27T06:31:13;102779.66;;;1.07
12126;BMP180;6126;57.908;16.490;2022-11-27T06:33:39;102772.75;;;1.06
12126;BMP180;6126;57.908;16.490;2022-11-27T06:36:06;102794.22;;;1.06
12126;BMP180;6126;57.908;16.490;2022-11-27T06:38:34;102775.38;;;1.07
12126;BMP180;6126;57.908;16.490;2022-11-27T06:41:10;102776.19;;;1.05
12126;BMP180;6126;57.908;16.490;2022-11-27T06:43:37;102788.19;;;1.06
12126;BMP180;6126;57.908;16.490;2022-11-27T06:46:05;102785.59;;;1.04
12126;BMP180;6126;57.908;16.490;2022-11-27T06:48:32;102790.75;;;1.04
12126;BMP180;6126;57.908;16.490;2022-11-27T06:51:01;102777.03;;;1.05
12126;BMP180;6126;57.908;16.490;2022-11-27T06:53:29;102789.06;;;1.05
12126;BMP180;6126;57.908;16.490;2022-11-27T06:55:56;102787.28;;;1.04
12126;BMP180;6126;57.908;16.490;2022-11-27T06:58:22;102774.38;;;1.02
12126;BMP180;6126;57.908;16.490;2022-11-27T07:00:48;102791.53;;;1.02
12126;BMP180;6126;57.908;16.490;2022-11-27T07:03:14;102794.16;;;1.03
12126;BMP180;6126;57.908;16.490;2022-11-27T07:05:40;102785.56;;;1.03
12126;BMP180;6126;57.908;16.490;2022-11-27T07:08:06;102777.91;;;1.06
12126;BMP180;6126;57.908;16.490;2022-11-27T07:10:34;102784.91;;;1.10
12126;BMP180;6126;57.908;16.490;2022-11-27T07:13:01;102785.75;;;1.10
12126;BMP180;6126;57.908;16.490;2022-11-27T07:15:27;102778.09;;;1.12
12126;BMP180;6126;57.908;16.490;2022-11-27T07:17:53;102787.56;;;1.14
12126;BMP180;6126;57.908;16.490;2022-11-27T07:20:19;102787.56;;;1.14
12126;BMP180;6126;57.908;16.490;2022-11-27T07:22:44;102789.25;;;1.12
12126;BMP180;6126;57.908;16.490;2022-11-27T07:25:10;102789.25;;;1.12
12126;BMP180;6126;57.908;16.490;2022-11-27T07:27:36;102791.00;;;1.13
12126;BMP180;6126;57.908;16.490;2022-11-27T07:30:02;102793.63;;;1.15
12126;BMP180;6126;57.908;16.490;2022-11-27T07:32:28;102784.19;;;1.15
12126;BMP180;6126;57.908;16.490;2022-11-27T07:34:54;102780.75;;;1.16
12126;BMP180;6126;57.908;16.490;2022-11-27T07:37:20;102778.25;;;1.18
12126;BMP180;6126;57.908;16.490;2022-11-27T07:39:46;102780.81;;;1.18
12126;BMP180;6126;57.908;16.490;2022-11-27T07:42:11;102788.53;;;1.18
12126;BMP180;6126;57.908;16.490;2022-11-27T07:44:37;102792.84;;;1.19
12126;BMP180;6126;57.908;16.490;2022-11-27T07:47:03;102790.34;;;1.22
12126;BMP180;6126;57.908;16.490;2022-11-27T07:49:29;102797.28;;;1.24
12126;BMP180;6126;57.908;16.490;2022-11-27T07:51:55;102799.94;;;1.27
12126;BMP180;6126;57.908;16.490;2022-11-27T07:54:22;102805.22;;;1.30
12126;BMP180;6126;57.908;16.490;2022-11-27T07:56:48;102795.75;;;1.30
12126;BMP180;6126;57.908;16.490;2022-11-27T07:59:14;102801.72;;;1.29
12126;BMP180;6126;57.908;16.490;2022-11-27T08:01:40;102801.78;;;1.31
12126;BMP180;6126;57.908;16.490;2022-11-27T08:04:05;102794.94;;;1.31
12126;BMP180;6126;57.908;16.490;2022-11-27T08:06:31;102797.50;;;1.31
12126;BMP180;6126;57.908;16.490;2022-11-27T08:08:57;102797.63;;;1.36
12126;BMP180;6126;57.908;16.490;2022-11-27T08:11:27;102801.06;;;1.36
12126;BMP180;6126;57.908;16.490;2022-11-27T08:13:59;102803.69;;;1.38
12126;BMP180;6126;57.908;16.490;2022-11-27T08:16:26;102798.56;;;1.39
12126;BMP180;6126;57.908;16.490;2022-11-27T08:18:53;102795.06;;;1.37
12126;BMP180;6126;57.908;16.490;2022-11-27T08:21:19;102809.72;;;1.38
12126;BMP180;6126;57.908;16.490;2022-11-27T08:23:45;102814.09;;;1.41
12126;BMP180;6126;57.908;16.490;2022-11-27T08:26:12;102823.59;;;1.43
12126;BMP180;6126;57.908;16.490;2022-11-27T08:28:39;102822.75;;;1.44
12126;BMP180;6126;57.908;16.490;2022-11-27T08:31:07;102825.41;;;1.47
12126;BMP180;6126;57.908;16.490;2022-11-27T08:33:34;102826.28;;;1.48
12126;BMP180;6126;57.908;16.490;2022-11-27T08:36:01;102830.63;;;1.49
12126;BMP180;6126;57.908;16.490;2022-11-27T08:38:27;102833.19;;;1.49
12126;BMP180;6126;57.908;16.490;2022-11-27T08:41:01;102838.34;;;1.50
12126;BMP180;6126;57.908;16.490;2022-11-27T08:43:28;102833.25;;;1.52
12126;BMP180;6126;57.908;16.490;2022-11-27T08:45:55;102829.81;;;1.51
12126;BMP180;6126;57.908;16.490;2022-11-27T08:48:22;102828.06;;;1.50
12126;BMP180;6126;57.908;16.490;2022-11-27T08:50:49;102830.63;;;1.50
12126;BMP180;6126;57.908;16.490;2022-11-27T08:53:17;102834.13;;;1.52
12126;BMP180;6126;57.908;16.490;2022-11-27T08:55:44;102833.28;;;1.53
12126;BMP180;6126;57.908;16.490;2022-11-27T08:58:10;102835.03;;;1.54
12126;BMP180;6126;57.908;16.490;2022-11-27T09:00:37;102838.53;;;1.56
12126;BMP180;6126;57.908;16.490;2022-11-27T09:03:04;102840.28;;;1.57
12126;BMP180;6126;57.908;16.490;2022-11-27T09:05:31;102835.97;;;1.56
12126;BMP180;6126;57.908;16.490;2022-11-27T09:07:57;102839.44;;;1.58
12126;BMP180;6126;57.908;16.490;2022-11-27T09:10:25;102843.00;;;1.63
12126;BMP180;6126;57.908;16.490;2022-11-27T09:12:51;102846.50;;;1.65
12126;BMP180;6126;57.908;16.490;2022-11-27T09:15:17;102853.38;;;1.66
12126;BMP180;6126;57.908;16.490;2022-11-27T09:17:43;102840.50;;;1.66
12126;BMP180;6126;57.908;16.490;2022-11-27T09:20:10;102851.72;;;1.66
12126;BMP180;6126;57.908;16.490;2022-11-27T09:22:38;102837.91;;;1.66
12126;BMP180;6126;57.908;16.490;2022-11-27T09:25:05;102849.13;;;1.66
12126;BMP180;6126;57.908;16.490;2022-11-27T09:27:30;102853.38;;;1.66
12126;BMP180;6126;57.908;16.490;2022-11-27T09:29:56;102846.50;;;1.65
12126;BMP180;6126;57.908;16.490;2022-11-27T09:32:22;102843.97;;;1.66
12126;BMP180;6126;57.908;16.490;2022-11-27T09:34:51;102839.75;;;1.70
12126;BMP180;6126;57.908;16.490;2022-11-27T09:37:16;102842.34;;;1.71
12126;BMP180;6126;57.908;16.490;2022-11-27T09:39:42;102845.84;;;1.72
12126;BMP180;6126;57.908;16.490;2022-11-27T09:42:27;102845.84;;;1.73
12126;BMP180;6126;57.908;16.490;2022-11-27T09:44:59;102849.34;;;1.75
12126;BMP180;6126;57.908;16.490;2022-11-27T09:47:49;102836.59;;;1.80
12126;BMP180;6126;57.908;16.490;2022-11-27T09:50:27;102840.16;;;1.84
12126;BMP180;6126;57.908;16.490;2022-11-27T09:53:00;102837.56;;;1.84
12126;BMP180;6126;57.908;16.490;2022-11-27T09:55:46;102826.44;;;1.87
12126;BMP180;6126;57.908;16.490;2022-11-27T10:01:26;102817.84;;;1.86
12126;BMP180;6126;57.908;16.490;2022-11-27T10:03:54;102807.44;;;1.82
12126;BMP180;6126;57.908;16.490;2022-11-27T10:15:13;102799.72;;;1.83
12126;BMP180;6126;57.908;16.490;2022-11-27T10:18:25;102800.66;;;1.87
12126;BMP180;6126;57.908;16.490;2022-11-27T10:21:02;102793.81;;;1.89
12126;BMP180;6126;57.908;16.490;2022-11-27T10:24:04;102787.91;;;1.93
12126;BMP180;6126;57.908;16.490;2022-11-27T10:26:47;102790.53;;;1.94
12126;BMP180;6126;57.908;16.490;2022-11-27T10:31:53;102778.53;;;1.96
12126;BMP180;6126;57.908;16.490;2022-11-27T10:34:36;102785.44;;;1.97
12126;BMP180;6126;57.908;16.490;2022-11-27T10:37:24;102782.78;;;1.94
12126;BMP180;6126;57.908;16.490;2022-11-27T10:42:47;102768.09;;;1.90
12126;BMP180;6126;57.908;16.490;2022-11-27T10:48:10;102756.06;;;1.91
12126;BMP180;6126;57.908;16.490;2022-11-27T10:50:37;102763.84;;;1.92
12126;BMP180;6126;57.908;16.490;2022-11-27T10:58:58;102756.25;;;1.98
12126;BMP180;6126;57.908;16.490;2022-11-27T11:01:39;102754.59;;;2.00
12126;BMP180;6126;57.908;16.490;2022-11-27T11:04:11;102746.00;;;2.01
12126;BMP180;6126;57.908;16.490;2022-11-27T11:06:42;102745.16;;;2.02
12126;BMP180;6126;57.908;16.490;2022-11-27T11:09:33;102738.19;;;1.98
12126;BMP180;6126;57.908;16.490;2022-11-27T11:12:28;102745.03;;;1.96
12126;BMP180;6126;57.908;16.490;2022-11-27T11:14:59;102743.31;;;1.97
12126;BMP180;6126;57.908;16.490;2022-11-27T11:17:32;102728.78;;;2.00
12126;BMP180;6126;57.908;16.490;2022-11-27T11:20:22;102743.47;;;2.04
12126;BMP180;6126;57.908;16.490;2022-11-27T11:22:49;102731.38;;;2.00
12126;BMP180;6126;57.908;16.490;2022-11-27T11:25:18;102741.59;;;1.97
12126;BMP180;6126;57.908;16.490;2022-11-27T11:27:48;102735.63;;;1.98
12126;BMP180;6126;57.908;16.490;2022-11-27T11:30:27;102735.69;;;2.01
12126;BMP180;6126;57.908;16.490;2022-11-27T11:33:02;102734.06;;;2.06
12126;BMP180;6126;57.908;16.490;2022-11-27T11:35:33;102733.22;;;2.07
12126;BMP180;6126;57.908;16.490;2022-11-27T11:38:03;102719.56;;;2.11
12126;BMP180;6126;57.908;16.490;2022-11-27T11:40:35;102729.09;;;2.15
12126;BMP180;6126;57.908;16.490;2022-11-27T11:43:05;102727.44;;;2.17
12126;BMP180;6126;57.908;16.490;2022-11-27T11:45:45;102737.66;;;2.13
12126;BMP180;6126;57.908;16.490;2022-11-27T11:48:25;102726.22;;;2.02
12126;BMP180;6126;57.908;16.490;2022-11-27T11:51:26;102732.84;;;1.91
12126;BMP180;6126;57.908;16.490;2022-11-27T11:54:28;102719.03;;;1.87
12126;BMP180;6126;57.908;16.490;2022-11-27T11:57:01;102719.78;;;1.83
12126;BMP180;6126;57.908;16.490;2022-11-27T12:00:06;102724.13;;;1.84
12126;BMP180;6126;57.908;16.490;2022-11-27T12:03:32;102724.19;;;1.87
12126;BMP180;6126;57.908;16.490;2022-11-27T12:06:29;102730.22;;;1.89
12126;BMP180;6126;57.908;16.490;2022-11-27T12:11:56;102721.63;;;1.87
12126;BMP180;6126;57.908;16.490;2022-11-27T12:18:00;102721.97;;;1.67
12126;BMP180;6126;57.908;16.490;2022-11-27T12:20:59;102727.13;;;1.67
12126;BMP180;6126;57.908;16.490;2022-11-27T12:33:08;102723.94;;;1.77
12126;BMP180;6126;57.908;16.490;2022-11-27T12:44:52;102719.69;;;1.79
12126;BMP180;6126;57.908;16.490;2022-11-27T12:47:32;102721.38;;;1.79
12126;BMP180;6126;57.908;16.490;2022-11-27T12:53:24;102724.56;;;1.69
12126;BMP180;6126;57.908;16.490;2022-11-27T12:58:38;102732.22;;;1.64
12126;BMP180;6126;57.908;16.490;2022-11-27T13:01:13;102736.59;;;1.67
12126;BMP180;6126;57.908;16.490;2022-11-27T13:06:25;102728.72;;;1.62
12126;BMP180;6126;57.908;16.490;2022-11-27T13:08:58;102732.09;;;1.60
12126;BMP180;6126;57.908;16.490;2022-11-27T13:11:37;102728.69;;;1.61
12126;BMP180;6126;57.908;16.490;2022-11-27T13:14:18;102729.59;;;1.63
12126;BMP180;6126;57.908;16.490;2022-11-27T13:17:05;102715.06;;;1.65
12126;BMP180;6126;57.908;16.490;2022-11-27T13:19:47;102715.13;;;1.68
12126;BMP180;6126;57.908;16.490;2022-11-27T13:22:28;102713.38;;;1.67
12126;BMP180;6126;57.908;16.490;2022-11-27T13:25:00;102721.94;;;1.66
12126;BMP180;6126;57.908;16.490;2022-11-27T13:27:31;102708.97;;;1.63
12126;BMP180;6126;57.908;16.490;2022-11-27T13:30:08;102708.97;;;1.61
12126;BMP180;6126;57.908;16.490;2022-11-27T13:32:53;102719.16;;;1.57
12126;BMP180;6126;57.908;16.490;2022-11-27T13:35:42;102710.56;;;1.58
12126;BMP180;6126;57.908;16.490;2022-11-27T13:38:20;102714.06;;;1.58
12126;BMP180;6126;57.908;16.490;2022-11-27T13:40:50;102722.66;;;1.59
12126;BMP180;6126;57.908;16.490;2022-11-27T13:43:50;102728.66;;;1.59
12126;BMP180;6126;57.908;16.490;2022-11-27T13:46:26;102732.97;;;1.59
12126;BMP180;6126;57.908;16.490;2022-11-27T13:49:04;102726.94;;;1.58
12126;BMP180;6126;57.908;16.490;2022-11-27T13:51:37;102724.31;;;1.57
12126;BMP180;6126;57.908;16.490;2022-11-27T13:54:30;102725.16;;;1.56
12126;BMP180;6126;57.908;16.490;2022-11-27T13:56:55;102721.59;;;1.52
12126;BMP180;6126;57.908;16.490;2022-11-27T13:59:24;102718.09;;;1.49
12126;BMP180;6126;57.908;16.490;2022-11-27T14:02:04;102721.53;;;1.48
12126;BMP180;6126;57.908;16.490;2022-11-27T14:04:32;102710.38;;;1.49
12126;BMP180;6126;57.908;16.490;2022-11-27T14:07:07;102712.09;;;1.50
12126;BMP180;6126;57.908;16.490;2022-11-27T14:09:47;102715.59;;;1.52
12126;BMP180;6126;57.908;16.490;2022-11-27T14:12:25;102705.34;;;1.55
12126;BMP180;6126;57.908;16.490;2022-11-27T14:15:23;102710.50;;;1.55
12126;BMP180;6126;57.908;16.490;2022-11-27T14:18:02;102692.44;;;1.53
12126;BMP180;6126;57.908;16.490;2022-11-27T14:20:34;102699.34;;;1.54
12126;BMP180;6126;57.908;16.490;2022-11-27T14:23:02;102700.19;;;1.55
12126;BMP180;6126;57.908;16.490;2022-11-27T14:25:32;102696.81;;;1.56
12126;BMP180;6126;57.908;16.490;2022-11-27T14:28:22;102692.53;;;1.56
12126;BMP180;6126;57.908;16.490;2022-11-27T14:30:58;102689.06;;;1.56
12126;BMP180;6126;57.908;16.490;2022-11-27T14:33:30;102688.22;;;1.57
12126;BMP180;6126;57.908;16.490;2022-11-27T14:36:04;102682.16;;;1.55
12126;BMP180;6126;57.908;16.490;2022-11-27T14:38:33;102688.97;;;1.53
12126;BMP180;6126;57.908;16.490;2022-11-27T14:41:21;102685.50;;;1.51
12126;BMP180;6126;57.908;16.490;2022-11-27T14:44:05;102688.09;;;1.51
12126;BMP180;6126;57.908;16.490;2022-11-27T14:46:36;102688.09;;;1.51
12126;BMP180;6126;57.908;16.490;2022-11-27T14:49:02;102678.59;;;1.50
12126;BMP180;6126;57.908;16.490;2022-11-27T14:51:32;102681.03;;;1.44
12126;BMP180;6126;57.908;16.490;2022-11-27T14:54:04;102693.00;;;1.41
12126;BMP180;6126;57.908;16.490;2022-11-27T14:56:41;102679.22;;;1.40
12126;BMP180;6126;57.908;16.490;2022-11-27T14:59:20;102680.97;;;1.41
12126;BMP180;6126;57.908;16.490;2022-11-27T15:04:44;102676.75;;;1.45
12126;BMP180;6126;57.908;16.490;2022-11-27T15:07:26;102669.00;;;1.43
12126;BMP180;6126;57.908;16.490;2022-11-27T15:09:56;102665.59;;;1.44
12126;BMP180;6126;57.908;16.490;2022-11-27T15:12:32;102676.81;;;1.46
12126;BMP180;6126;57.908;16.490;2022-11-27T15:15:07;102675.88;;;1.44
12126;BMP180;6126;57.908;16.490;2022-11-27T15:17:37;102683.47;;;1.38
12126;BMP180;6126;57.908;16.490;2022-11-27T15:20:34;102678.28;;;1.37
12126;BMP180;6126;57.908;16.490;2022-11-27T15:23:01;102673.09;;;1.35
12126;BMP180;6126;57.908;16.490;2022-11-27T15:26:08;102667.97;;;1.37
12126;BMP180;6126;57.908;16.490;2022-11-27T15:28:50;102673.97;;;1.36
12126;BMP180;6126;57.908;16.490;2022-11-27T15:31:50;102676.53;;;1.36
12126;BMP180;6126;57.908;16.490;2022-11-27T15:36:50;102684.28;;;1.37
12126;BMP180;6126;57.908;16.490;2022-11-27T15:39:45;102674.06;;;1.40
12126;BMP180;6126;57.908;16.490;2022-11-27T15:42:11;102662.03;;;1.39
12126;BMP180;6126;57.908;16.490;2022-11-27T15:44:39;102668.09;;;1.43
12126;BMP180;6126;57.908;16.490;2022-11-27T15:47:21;102663.84;;;1.43
12126;BMP180;6126;57.908;16.490;2022-11-27T15:49:49;102651.78;;;1.42
12126;BMP180;6126;57.908;16.490;2022-11-27T15:52:14;102655.22;;;1.43
12126;BMP180;6126;57.908;16.490;2022-11-27T15:54:40;102657.81;;;1.43
12126;BMP180;6126;57.908;16.490;2022-11-27T15:57:06;102644.09;;;1.44
12126;BMP180;6126;57.908;16.490;2022-11-27T15:59:32;102656.94;;;1.42
12126;BMP180;6126;57.908;16.490;2022-11-27T16:01:58;102651.84;;;1.44
12126;BMP180;6126;57.908;16.490;2022-11-27T16:04:23;102644.06;;;1.42
12126;BMP180;6126;57.908;16.490;2022-11-27T16:06:49;102648.34;;;1.42
12126;BMP180;6126;57.908;16.490;2022-11-27T16:09:15;102651.78;;;1.42
12126;BMP180;6126;57.908;16.490;2022-11-27T16:11:41;102650.06;;;1.41
12126;BMP180;6126;57.908;16.490;2022-11-27T16:14:07;102654.34;;;1.42
12126;BMP180;6126;57.908;16.490;2022-11-27T16:16:33;102646.63;;;1.42
12126;BMP180;6126;57.908;16.490;2022-11-27T16:19:01;102645.03;;;1.46
12126;BMP180;6126;57.908;16.490;2022-11-27T16:21:28;102651.94;;;1.48
12126;BMP180;6126;57.908;16.490;2022-11-27T16:24:02;102649.41;;;1.50
12126;BMP180;6126;57.908;16.490;2022-11-27T16:26:29;102636.56;;;1.51